Time;durP1;ratioP1;P1;durP2;ratioP2;P2;SDS_P1;SDS_P2;PMS_P1;PMS_P2;Temp;Humidity;BMP_temperature;BMP_pressure;BME280_temperature;BME280_humidity;BME280_pressure;Samples;Min_cycle;Max_cycle;Signal;HPM_P1;HPM_P2
2023/12/30 00:01:32;;;;;;;;;;;6.10;99.90;;;;;;6216412;23;19974;-77
2023/12/30 00:03:57;;;;;;;;;;;6.10;99.90;;;;;;6217368;23;19915;-77
2023/12/30 00:06:23;;;;;;;;;;;6.10;99.90;;;;;;6190039;23;19920;-77
2023/12/30 00:08:49;;;;;;;;;;;6.20;99.90;;;;;;6216806;23;19994;-77
2023/12/30 00:11:15;;;;;;;;;;;6.20;99.90;;;;;;6190473;23;19939;-77
2023/12/30 00:13:40;;;;;;;;;;;6.20;99.90;;;;;;6217448;23;20319;-77
2023/12/30 00:16:06;;;;;;;;;;;6.20;99.90;;;;;;6216867;23;19970;-77
2023/12/30 00:18:31;;;;;;;;;;;6.20;99.90;;;;;;6189856;23;19919;-77
2023/12/30 00:21:00;;;;;;;;;;;6.20;99.90;;;;;;6190315;23;19919;-77
2023/12/30 00:23:25;;;;;;;;;;;6.20;99.90;;;;;;6189854;23;19916;-77
2023/12/30 00:25:53;;;;;;;;;;;6.20;99.90;;;;;;6189643;23;19922;-77
2023/12/30 00:28:18;;;;;;;;;;;6.20;99.90;;;;;;6189846;23;20356;-77
2023/12/30 00:30:47;;;;;;;;;;;6.20;99.90;;;;;;6216645;23;19994;-77
2023/12/30 00:33:13;;;;;;;;;;;6.20;99.90;;;;;;6189777;23;20343;-77
2023/12/30 00:35:38;;;;;;;;;;;6.20;99.90;;;;;;6189878;23;19994;-77
2023/12/30 00:38:04;;;;;;;;;;;6.20;99.90;;;;;;6216371;23;20316;-77
2023/12/30 00:40:29;;;;;;;;;;;6.20;99.90;;;;;;6216214;23;19922;-77
2023/12/30 00:42:55;;;;;;;;;;;6.30;99.90;;;;;;6189811;23;19964;-77
2023/12/30 00:45:20;;;;;;;;;;;6.30;99.90;;;;;;6189761;23;19923;-77
2023/12/30 00:47:46;;;;;;;;;;;6.20;99.90;;;;;;6189586;23;19920;-77
2023/12/30 00:50:11;;;;;;;;;;;6.20;99.90;;;;;;6189736;23;19923;-77
2023/12/30 00:52:38;;;;;;;;;;;6.30;99.90;;;;;;6216317;23;20386;-77
2023/12/30 00:55:07;;;;;;;;;;;6.30;99.90;;;;;;6189860;23;19954;-77
2023/12/30 00:57:33;;;;;;;;;;;6.20;99.90;;;;;;6189726;23;19966;-77
2023/12/30 00:59:58;;;;;;;;;;;6.20;99.90;;;;;;6189722;23;19994;-77
2023/12/30 01:02:27;;;;;;;;;;;6.20;99.90;;;;;;6189782;23;19920;-77
2023/12/30 01:04:52;;;;;;;;;;;6.20;99.90;;;;;;6189677;23;20291;-77
2023/12/30 01:07:18;;;;;;;;;;;6.20;99.90;;;;;;6189534;23;19922;-77
2023/12/30 01:09:43;;;;;;;;;;;6.30;99.90;;;;;;6189658;23;19916;-77
2023/12/30 01:12:09;;;;;;;;;;;6.20;99.90;;;;;;6189742;23;19962;-77
2023/12/30 01:14:34;;;;;;;;;;;6.20;99.90;;;;;;6189550;23;19912;-77
2023/12/30 01:17:00;;;;;;;;;;;6.20;99.90;;;;;;6189577;23;19915;-77
2023/12/30 01:19:25;;;;;;;;;;;6.10;99.90;;;;;;6189608;23;20240;-77
2023/12/30 01:21:51;;;;;;;;;;;6.10;99.90;;;;;;6189661;23;19960;-77
2023/12/30 01:24:16;;;;;;;;;;;6.10;99.90;;;;;;6190513;23;19916;-78
2023/12/30 01:26:42;;;;;;;;;;;6.10;99.90;;;;;;6217945;23;19924;-78
2023/12/30 01:29:07;;;;;;;;;;;6.10;99.90;;;;;;6217866;23;19955;-78
2023/12/30 01:31:34;;;;;;;;;;;6.10;99.90;;;;;;6218032;23;19916;-78
2023/12/30 01:34:00;;;;;;;;;;;6.10;99.90;;;;;;6191392;23;19959;-78
2023/12/30 01:36:25;;;;;;;;;;;6.30;99.90;;;;;;6218208;23;19915;-78
2023/12/30 01:38:51;;;;;;;;;;;6.20;99.90;;;;;;6191278;23;19994;-78
2023/12/30 01:41:18;;;;;;;;;;;6.20;99.90;;;;;;6218206;23;19955;-78
2023/12/30 01:43:44;;;;;;;;;;;6.20;99.90;;;;;;6218129;23;19916;-78
2023/12/30 01:46:09;;;;;;;;;;;6.20;99.90;;;;;;6218139;23;19948;-77
2023/12/30 01:48:37;;;;;;;;;;;6.10;99.90;;;;;;6190938;23;19922;-77
2023/12/30 01:51:03;;;;;;;;;;;6.10;99.90;;;;;;6217703;23;20011;-77
2023/12/30 01:53:34;;;;;;;;;;;6.10;99.90;;;;;;6217983;23;19920;-77
2023/12/30 01:56:00;;;;;;;;;;;6.10;99.90;;;;;;6191127;23;19963;-77
2023/12/30 01:58:26;;;;;;;;;;;6.10;99.90;;;;;;6191152;23;19919;-77
2023/12/30 02:00:54;;;;;;;;;;;6.10;99.90;;;;;;6191065;23;19916;-77
2023/12/30 02:03:21;;;;;;;;;;;6.10;99.90;;;;;;6217986;23;19916;-77
2023/12/30 02:05:47;;;;;;;;;;;6.10;99.90;;;;;;6191117;23;19915;-77
2023/12/30 02:08:14;;;;;;;;;;;6.20;99.90;;;;;;6191074;23;19919;-78
2023/12/30 02:10:40;;;;;;;;;;;6.20;99.90;;;;;;6190982;23;19922;-77
2023/12/30 02:13:05;;;;;;;;;;;6.30;99.90;;;;;;6190914;23;19919;-77
2023/12/30 02:15:31;;;;;;;;;;;6.30;99.90;;;;;;6217391;23;19930;-77
2023/12/30 02:17:56;;;;;;;;;;;6.30;99.90;;;;;;6191031;23;19916;-77
2023/12/30 02:20:23;;;;;;;;;;;6.40;99.90;;;;;;6190957;23;19986;-77
2023/12/30 02:22:49;;;;;;;;;;;6.40;99.90;;;;;;6190851;23;20358;-77
2023/12/30 02:25:15;;;;;;;;;;;6.40;99.90;;;;;;6190882;23;20315;-77
2023/12/30 02:27:43;;;;;;;;;;;6.50;99.90;;;;;;6217700;23;19916;-77
2023/12/30 02:30:09;;;;;;;;;;;6.50;99.90;;;;;;6217662;23;19959;-77
2023/12/30 02:32:35;;;;;;;;;;;6.50;99.90;;;;;;6190669;23;19991;-77
2023/12/30 02:35:01;;;;;;;;;;;6.60;99.90;;;;;;6217395;23;20362;-77
2023/12/30 02:37:26;;;;;;;;;;;6.50;99.90;;;;;;6217607;23;19916;-77
2023/12/30 02:39:52;;;;;;;;;;;6.60;99.90;;;;;;6190712;23;19924;-77
2023/12/30 02:42:17;;;;;;;;;;;6.60;99.90;;;;;;6190709;23;19915;-77
2023/12/30 02:44:43;;;;;;;;;;;6.60;99.90;;;;;;6217234;23;19923;-77
2023/12/30 02:47:08;;;;;;;;;;;6.60;99.90;;;;;;6217597;23;19916;-77
2023/12/30 02:49:35;;;;;;;;;;;6.60;99.90;;;;;;6190329;23;19915;-77
2023/12/30 02:52:01;;;;;;;;;;;6.60;99.90;;;;;;6190613;23;19916;-77
2023/12/30 02:54:27;;;;;;;;;;;6.70;99.90;;;;;;6217538;23;19923;-77
2023/12/30 02:56:53;;;;;;;;;;;6.70;99.90;;;;;;6217271;23;19927;-77
2023/12/30 02:59:18;;;;;;;;;;;6.70;99.90;;;;;;6190620;23;19919;-77
2023/12/30 03:01:44;;;;;;;;;;;6.70;99.90;;;;;;6190578;23;19937;-77
2023/12/30 03:04:09;;;;;;;;;;;6.70;99.90;;;;;;6190520;23;20292;-77
2023/12/30 03:06:35;;;;;;;;;;;6.70;99.90;;;;;;6190352;23;20208;-77
2023/12/30 03:09:01;;;;;;;;;;;6.70;99.90;;;;;;6190124;23;20406;-77
2023/12/30 03:11:26;;;;;;;;;;;6.70;99.90;;;;;;6190273;23;19916;-78
2023/12/30 03:13:52;;;;;;;;;;;6.70;99.90;;;;;;6190436;23;19919;-78
2023/12/30 03:16:18;;;;;;;;;;;6.70;99.90;;;;;;6217475;23;19923;-77
2023/12/30 03:18:44;;;;;;;;;;;6.70;99.90;;;;;;6217056;23;19920;-77
2023/12/30 03:21:11;;;;;;;;;;;6.70;99.90;;;;;;6217141;23;19939;-77
2023/12/30 03:23:37;;;;;;;;;;;6.80;99.90;;;;;;6190258;23;19916;-77
2023/12/30 03:26:03;;;;;;;;;;;6.80;99.90;;;;;;6190263;23;19973;-77
2023/12/30 03:28:28;;;;;;;;;;;6.80;99.90;;;;;;6217107;23;19915;-77
2023/12/30 03:30:54;;;;;;;;;;;6.80;99.90;;;;;;6216709;23;19916;-77
2023/12/30 03:33:19;;;;;;;;;;;6.80;99.90;;;;;;6190270;23;19994;-77
2023/12/30 03:35:45;;;;;;;;;;;6.80;99.90;;;;;;6217157;23;19919;-77
2023/12/30 03:38:11;;;;;;;;;;;6.80;99.90;;;;;;6216716;23;19916;-77
2023/12/30 03:40:39;;;;;;;;;;;6.90;99.90;;;;;;6190080;23;19911;-77
2023/12/30 03:43:05;;;;;;;;;;;6.90;99.90;;;;;;6190176;23;20051;-77
2023/12/30 03:45:30;;;;;;;;;;;6.90;99.90;;;;;;6190190;23;19916;-77
2023/12/30 03:47:57;;;;;;;;;;;6.80;99.90;;;;;;6189547;23;19939;-77
2023/12/30 03:50:22;;;;;;;;;;;6.90;99.90;;;;;;6216475;23;20503;-77
2023/12/30 03:52:49;;;;;;;;;;;6.90;99.90;;;;;;6190117;23;19916;-77
2023/12/30 03:55:14;;;;;;;;;;;6.80;99.90;;;;;;6216835;23;19919;-78
2023/12/30 03:57:40;;;;;;;;;;;6.90;99.90;;;;;;6190153;23;19916;-77
2023/12/30 04:00:06;;;;;;;;;;;6.80;99.90;;;;;;6189940;23;19960;-77
2023/12/30 04:02:31;;;;;;;;;;;6.80;99.90;;;;;;6189837;23;19990;-77
2023/12/30 04:04:57;;;;;;;;;;;6.80;99.90;;;;;;6189990;23;19916;-77
2023/12/30 04:07:22;;;;;;;;;;;6.80;99.90;;;;;;6189967;23;19922;-77
2023/12/30 04:09:48;;;;;;;;;;;6.80;99.90;;;;;;6189810;23;19915;-77
2023/12/30 04:12:13;;;;;;;;;;;6.80;99.90;;;;;;6216779;23;19995;-77
2023/12/30 04:14:39;;;;;;;;;;;6.80;99.90;;;;;;6216829;23;19962;-77
2023/12/30 04:17:04;;;;;;;;;;;6.80;99.90;;;;;;6189983;23;20324;-77
2023/12/30 04:19:30;;;;;;;;;;;6.80;99.90;;;;;;6189895;23;20236;-77
2023/12/30 04:21:55;;;;;;;;;;;6.80;99.90;;;;;;6189808;23;19915;-77
2023/12/30 04:24:21;;;;;;;;;;;6.80;99.90;;;;;;6189883;23;19915;-77
2023/12/30 04:26:46;;;;;;;;;;;6.80;99.90;;;;;;6189889;23;19916;-77
2023/12/30 04:29:12;;;;;;;;;;;6.80;99.90;;;;;;6216305;23;19916;-77
2023/12/30 04:31:37;;;;;;;;;;;6.80;99.90;;;;;;6189960;23;19951;-77
2023/12/30 04:34:03;;;;;;;;;;;6.80;99.90;;;;;;6189669;23;19916;-78
2023/12/30 04:36:28;;;;;;;;;;;6.80;99.90;;;;;;6189973;23;19915;-77
2023/12/30 04:38:54;;;;;;;;;;;6.80;99.90;;;;;;6216203;23;19911;-77
2023/12/30 04:41:19;;;;;;;;;;;6.80;99.90;;;;;;6189850;23;19964;-77
2023/12/30 04:43:45;;;;;;;;;;;6.80;99.90;;;;;;6189865;23;19995;-77
2023/12/30 04:46:11;;;;;;;;;;;6.80;99.90;;;;;;6216504;23;19975;-77
2023/12/30 04:48:40;;;;;;;;;;;6.80;99.90;;;;;;6189512;23;20352;-78
2023/12/30 04:51:05;;;;;;;;;;;6.80;99.90;;;;;;6216202;23;19939;-78
2023/12/30 04:53:31;;;;;;;;;;;6.70;99.90;;;;;;6216351;23;20335;-78
2023/12/30 04:55:56;;;;;;;;;;;6.70;99.90;;;;;;6189869;23;19943;-77
2023/12/30 04:58:22;;;;;;;;;;;6.70;99.90;;;;;;6189840;23;19962;-77
2023/12/30 05:00:47;;;;;;;;;;;6.60;99.90;;;;;;6191691;23;19943;-77
2023/12/30 05:03:14;;;;;;;;;;;6.60;99.90;;;;;;6191651;23;19919;-77
2023/12/30 05:05:40;;;;;;;;;;;6.60;99.90;;;;;;6191648;23;19922;-78
2023/12/30 05:08:06;;;;;;;;;;;6.60;99.90;;;;;;6218176;23;19955;-77
2023/12/30 05:10:33;;;;;;;;;;;6.60;99.90;;;;;;6218374;23;19951;-78
2023/12/30 05:12:59;;;;;;;;;;;6.60;99.90;;;;;;6191320;23;20399;-78
2023/12/30 05:15:24;;;;;;;;;;;6.60;99.90;;;;;;6191407;23;20251;-78
2023/12/30 05:17:50;;;;;;;;;;;6.60;99.90;;;;;;6218440;23;20331;-78
2023/12/30 05:20:18;;;;;;;;;;;6.60;99.90;;;;;;6218329;23;19915;-77
2023/12/30 05:22:44;;;;;;;;;;;6.60;99.90;;;;;;6218379;23;19923;-78
2023/12/30 05:25:09;;;;;;;;;;;6.60;99.90;;;;;;6218061;23;19916;-78
2023/12/30 05:27:35;;;;;;;;;;;6.60;99.90;;;;;;6191580;23;19982;-78
2023/12/30 05:30:01;;;;;;;;;;;6.70;99.90;;;;;;6218236;23;19916;-78
2023/12/30 05:32:26;;;;;;;;;;;6.60;99.90;;;;;;6218194;23;19915;-78
2023/12/30 05:34:52;;;;;;;;;;;6.70;99.90;;;;;;6217839;23;19923;-78
2023/12/30 05:37:17;;;;;;;;;;;6.70;99.90;;;;;;6191337;23;19922;-78
2023/12/30 05:39:44;;;;;;;;;;;6.70;99.90;;;;;;6217755;23;19926;-78
2023/12/30 05:42:09;;;;;;;;;;;6.70;99.90;;;;;;6218256;23;19916;-78
2023/12/30 05:44:35;;;;;;;;;;;6.60;99.90;;;;;;6191429;23;19987;-78
2023/12/30 05:47:02;;;;;;;;;;;6.60;99.90;;;;;;6191182;23;19916;-78
2023/12/30 05:49:27;;;;;;;;;;;6.70;99.90;;;;;;6217384;23;20227;-78
2023/12/30 05:51:53;;;;;;;;;;;6.70;99.90;;;;;;6216942;23;20353;-78
2023/12/30 05:54:19;;;;;;;;;;;6.70;99.90;;;;;;6191177;23;19919;-78
2023/12/30 05:56:44;;;;;;;;;;;6.70;99.90;;;;;;6191197;23;19971;-78
2023/12/30 05:59:10;;;;;;;;;;;6.70;99.90;;;;;;6190995;23;19998;-78
2023/12/30 06:01:42;;;;;;;;;;;6.60;99.90;;;;;;6191002;23;19923;-78
2023/12/30 06:04:08;;;;;;;;;;;6.60;99.90;;;;;;6217397;23;20243;-77
2023/12/30 06:06:35;;;;;;;;;;;6.60;99.90;;;;;;6217936;23;20342;-78
2023/12/30 06:09:00;;;;;;;;;;;6.60;99.90;;;;;;6190648;23;20300;-78
2023/12/30 06:11:26;;;;;;;;;;;6.60;99.90;;;;;;6190916;23;20347;-78
2023/12/30 06:13:52;;;;;;;;;;;6.60;99.90;;;;;;6190953;23;19916;-78
2023/12/30 06:16:20;;;;;;;;;;;6.60;99.90;;;;;;6190994;23;19916;-78
2023/12/30 06:18:45;;;;;;;;;;;6.60;99.90;;;;;;6190921;23;19994;-78
2023/12/30 06:21:11;;;;;;;;;;;6.60;99.90;;;;;;6190907;23;19947;-78
2023/12/30 06:23:36;;;;;;;;;;;6.60;99.90;;;;;;6190826;23;19915;-78
2023/12/30 06:26:02;;;;;;;;;;;6.70;99.90;;;;;;6190973;23;20323;-77
2023/12/30 06:28:27;;;;;;;;;;;6.70;99.90;;;;;;6190922;23;19922;-77
2023/12/30 06:30:53;;;;;;;;;;;6.60;99.90;;;;;;6190803;23;19919;-77
2023/12/30 06:33:19;;;;;;;;;;;6.70;99.90;;;;;;6190809;23;19916;-78
2023/12/30 06:35:45;;;;;;;;;;;6.70;99.90;;;;;;6190809;23;19923;-77
2023/12/30 06:38:10;;;;;;;;;;;6.70;99.90;;;;;;6190866;23;19916;-78
2023/12/30 06:40:36;;;;;;;;;;;6.70;99.90;;;;;;6217637;23;19915;-78
2023/12/30 06:43:02;;;;;;;;;;;6.70;99.90;;;;;;6190670;23;20220;-77
2023/12/30 06:45:28;;;;;;;;;;;6.60;99.90;;;;;;6217202;23;20247;-77
2023/12/30 06:47:54;;;;;;;;;;;6.70;99.90;;;;;;6217036;23;19920;-77
2023/12/30 06:50:22;;;;;;;;;;;6.60;99.90;;;;;;6217440;23;19916;-77
2023/12/30 06:52:50;;;;;;;;;;;6.60;99.90;;;;;;6217544;23;19916;-77
2023/12/30 06:55:16;;;;;;;;;;;6.60;99.90;;;;;;6190675;23;19931;-77
2023/12/30 06:57:41;;;;;;;;;;;6.50;99.90;;;;;;6217210;23;19950;-77
2023/12/30 07:00:07;;;;;;;;;;;6.50;99.90;;;;;;6190612;23;19922;-77
2023/12/30 07:02:33;;;;;;;;;;;6.50;99.90;;;;;;6190548;23;19915;-77
2023/12/30 07:04:59;;;;;;;;;;;6.40;99.90;;;;;;6190441;23;19943;-78
2023/12/30 07:07:24;;;;;;;;;;;6.50;99.90;;;;;;6190524;23;19920;-78
2023/12/30 07:09:50;;;;;;;;;;;6.40;99.90;;;;;;6216905;23;20220;-78
2023/12/30 07:12:16;;;;;;;;;;;6.40;99.90;;;;;;6217338;23;19916;-78
2023/12/30 07:14:42;;;;;;;;;;;6.50;99.90;;;;;;6190438;23;19923;-78
2023/12/30 07:17:07;;;;;;;;;;;6.50;99.90;;;;;;6190433;23;19916;-78
2023/12/30 07:19:33;;;;;;;;;;;6.50;99.90;;;;;;6217199;23;19924;-78
2023/12/30 07:21:59;;;;;;;;;;;6.50;99.90;;;;;;6216852;23;19958;-78
2023/12/30 07:24:25;;;;;;;;;;;6.50;99.90;;;;;;6216991;23;19994;-77
2023/12/30 07:26:51;;;;;;;;;;;6.50;99.90;;;;;;6190335;23;20322;-78
2023/12/30 07:29:16;;;;;;;;;;;6.50;99.90;;;;;;6190171;23;19915;-78
2023/12/30 07:31:42;;;;;;;;;;;6.50;99.90;;;;;;6190291;23;20246;-78
2023/12/30 07:34:08;;;;;;;;;;;6.40;99.90;;;;;;6217011;23;19919;-78
2023/12/30 07:36:33;;;;;;;;;;;6.40;99.90;;;;;;6216737;23;19927;-78
2023/12/30 07:38:59;;;;;;;;;;;6.50;99.90;;;;;;6190169;23;19986;-78
2023/12/30 07:41:24;;;;;;;;;;;6.50;99.90;;;;;;6190237;23;19920;-78
2023/12/30 07:43:50;;;;;;;;;;;6.50;99.90;;;;;;6217093;23;19916;-78
2023/12/30 07:46:16;;;;;;;;;;;6.50;99.90;;;;;;6217084;23;19916;-78
2023/12/30 07:48:44;;;;;;;;;;;6.50;99.90;;;;;;6189817;23;19916;-78
2023/12/30 07:51:10;;;;;;;;;;;6.50;99.90;;;;;;6216525;23;20221;-78
2023/12/30 07:53:35;;;;;;;;;;;6.50;99.90;;;;;;6189994;23;19987;-78
2023/12/30 07:56:02;;;;;;;;;;;6.50;99.90;;;;;;6190066;23;19916;-78
2023/12/30 07:58:27;;;;;;;;;;;6.50;99.90;;;;;;6190019;23;20287;-78
2023/12/30 08:00:53;;;;;;;;;;;6.50;99.90;;;;;;6189973;23;19920;-78
2023/12/30 08:03:18;;;;;;;;;;;6.50;99.90;;;;;;6189750;23;19915;-78
2023/12/30 08:05:44;;;;;;;;;;;6.50;99.90;;;;;;6216074;23;20287;-78
2023/12/30 08:08:12;;;;;;;;;;;6.50;99.90;;;;;;6189846;23;19915;-78
2023/12/30 08:10:37;;;;;;;;;;;6.50;99.90;;;;;;6189803;23;19972;-78
2023/12/30 08:13:03;;;;;;;;;;;6.50;99.90;;;;;;6216702;23;19939;-78
2023/12/30 08:15:29;;;;;;;;;;;6.50;99.90;;;;;;6216751;23;19919;-78
2023/12/30 08:17:54;;;;;;;;;;;6.50;99.90;;;;;;6189687;23;19916;-78
2023/12/30 08:20:20;;;;;;;;;;;6.50;99.90;;;;;;6189916;23;19922;-78
2023/12/30 08:22:45;;;;;;;;;;;6.50;99.90;;;;;;6189935;23;20239;-78
2023/12/30 08:25:12;;;;;;;;;;;6.50;99.90;;;;;;6216867;23;20374;-78
2023/12/30 08:27:40;;;;;;;;;;;6.50;99.90;;;;;;6216681;23;19915;-78
2023/12/30 08:30:06;;;;;;;;;;;6.50;99.90;;;;;;6189467;23;19916;-78
2023/12/30 08:32:32;;;;;;;;;;;6.40;99.90;;;;;;6190237;23;19962;-78
2023/12/30 08:34:57;;;;;;;;;;;6.40;99.90;;;;;;6218548;23;19990;-78
2023/12/30 08:37:23;;;;;;;;;;;6.40;99.90;;;;;;6218685;23;19951;-78
2023/12/30 08:39:49;;;;;;;;;;;6.40;99.90;;;;;;6191784;23;19920;-78
2023/12/30 08:42:15;;;;;;;;;;;6.50;99.90;;;;;;6191880;23;19919;-78
2023/12/30 08:44:43;;;;;;;;;;;6.50;99.90;;;;;;6218093;23;19916;-78
2023/12/30 08:47:09;;;;;;;;;;;6.50;99.90;;;;;;6191641;23;19912;-78
2023/12/30 08:49:36;;;;;;;;;;;6.50;99.90;;;;;;6191555;23;20279;-78
2023/12/30 08:52:02;;;;;;;;;;;6.50;99.90;;;;;;6218570;23;19916;-78
2023/12/30 08:54:29;;;;;;;;;;;6.60;99.90;;;;;;6218274;23;19998;-77
2023/12/30 08:56:54;;;;;;;;;;;6.60;99.90;;;;;;6191542;23;19920;-78
2023/12/30 08:59:24;;;;;;;;;;;6.50;99.90;;;;;;6218420;23;20276;-77
2023/12/30 09:01:50;;;;;;;;;;;6.60;99.90;;;;;;6218118;23;20375;-79
2023/12/30 09:04:16;;;;;;;;;;;6.60;99.90;;;;;;6191529;23;19958;-79
2023/12/30 09:06:41;;;;;;;;;;;6.60;99.90;;;;;;6218314;23;19919;-79
2023/12/30 09:09:07;;;;;;;;;;;6.60;99.90;;;;;;6191431;23;20244;-79
2023/12/30 09:11:37;;;;;;;;;;;6.60;99.90;;;;;;6218458;23;19923;-79
2023/12/30 09:14:05;;;;;;;;;;;6.60;99.90;;;;;;6218002;23;20331;-79
2023/12/30 09:16:32;;;;;;;;;;;6.60;99.90;;;;;;6191563;23;19916;-79
2023/12/30 09:18:57;;;;;;;;;;;6.60;99.90;;;;;;6191408;23;20319;-79
2023/12/30 09:21:23;;;;;;;;;;;6.60;99.90;;;;;;6190850;23;19923;-79
2023/12/30 09:23:49;;;;;;;;;;;6.60;99.90;;;;;;6190815;23;20344;-79
2023/12/30 09:26:16;;;;;;;;;;;6.60;99.90;;;;;;6217884;23;19916;-80
2023/12/30 09:28:41;;;;;;;;;;;6.60;99.90;;;;;;6191004;23;19915;-78
2023/12/30 09:31:07;;;;;;;;;;;6.70;99.90;;;;;;6217927;23;20334;-78
2023/12/30 09:33:32;;;;;;;;;;;6.70;99.90;;;;;;6190934;23;20284;-78
2023/12/30 09:35:58;;;;;;;;;;;6.70;99.90;;;;;;6191082;23;19955;-77
2023/12/30 09:38:24;;;;;;;;;;;6.80;99.90;;;;;;6217485;23;19920;-76
2023/12/30 09:40:50;;;;;;;;;;;6.80;99.90;;;;;;6191207;23;19916;-78
2023/12/30 09:43:20;;;;;;;;;;;6.90;99.90;;;;;;6190974;23;20379;-77
2023/12/30 09:45:47;;;;;;;;;;;6.90;99.90;;;;;;6190435;23;19990;-78
2023/12/30 09:48:13;;;;;;;;;;;6.90;99.90;;;;;;6217572;23;19923;-78
2023/12/30 09:50:38;;;;;;;;;;;6.90;99.90;;;;;;6190864;23;19951;-81
2023/12/30 09:53:04;;;;;;;;;;;7.00;99.90;;;;;;6190891;23;19919;-79
2023/12/30 09:55:29;;;;;;;;;;;7.00;99.90;;;;;;6217774;23;20347;-79
2023/12/30 09:57:55;;;;;;;;;;;7.00;99.90;;;;;;6217377;23;19947;-79
2023/12/30 10:00:21;;;;;;;;;;;7.00;99.90;;;;;;6190852;23;20046;-79
2023/12/30 10:02:46;;;;;;;;;;;7.00;99.90;;;;;;6190789;23;20293;-79
2023/12/30 10:05:15;;;;;;;;;;;7.00;99.90;;;;;;6190782;23;20316;-79
2023/12/30 10:07:40;;;;;;;;;;;7.10;99.90;;;;;;6190855;23;19916;-79
2023/12/30 10:10:07;;;;;;;;;;;7.10;99.90;;;;;;6190617;23;20212;-79
2023/12/30 10:12:33;;;;;;;;;;;7.20;99.90;;;;;;6217414;23;19919;-79
2023/12/30 10:14:58;;;;;;;;;;;7.20;99.90;;;;;;6190734;23;19916;-79
2023/12/30 10:17:25;;;;;;;;;;;7.30;99.90;;;;;;6190642;23;19943;-79
2023/12/30 10:19:50;;;;;;;;;;;7.30;99.90;;;;;;6190523;23;20320;-79
2023/12/30 10:22:16;;;;;;;;;;;7.40;99.90;;;;;;6190673;23;19922;-79
2023/12/30 10:24:42;;;;;;;;;;;7.40;99.90;;;;;;6190614;23;19916;-79
2023/12/30 10:27:08;;;;;;;;;;;7.40;99.90;;;;;;6217434;23;20251;-79
2023/12/30 10:29:34;;;;;;;;;;;7.50;99.90;;;;;;6217395;23;19920;-78
2023/12/30 10:32:04;;;;;;;;;;;7.50;99.90;;;;;;6190514;23;19923;-78
2023/12/30 10:34:32;;;;;;;;;;;7.50;99.90;;;;;;6217442;23;19911;-78
2023/12/30 10:36:59;;;;;;;;;;;7.50;99.90;;;;;;6217081;23;19939;-78
2023/12/30 10:39:25;;;;;;;;;;;7.50;99.90;;;;;;6190383;23;20335;-77
2023/12/30 10:41:51;;;;;;;;;;;7.60;99.90;;;;;;6217375;23;19912;-78
2023/12/30 10:44:17;;;;;;;;;;;7.70;99.90;;;;;;6190449;23;19947;-77
2023/12/30 10:46:46;;;;;;;;;;;7.70;99.90;;;;;;6217026;23;19912;-77
2023/12/30 10:49:14;;;;;;;;;;;7.80;99.90;;;;;;6190145;23;19983;-77
2023/12/30 10:51:42;;;;;;;;;;;7.80;99.90;;;;;;6217135;23;19927;-77
2023/12/30 10:54:10;;;;;;;;;;;7.90;99.90;;;;;;6190362;23;19967;-78
2023/12/30 10:56:43;;;;;;;;;;;7.90;99.90;;;;;;6190316;23;19915;-78
2023/12/30 10:59:10;;;;;;;;;;;8.00;99.90;;;;;;6190248;23;19942;-78
2023/12/30 11:01:36;;;;;;;;;;;8.00;99.90;;;;;;6217076;23;19939;-79
2023/12/30 11:04:02;;;;;;;;;;;8.00;99.90;;;;;;6190273;23;20247;-79
2023/12/30 11:06:39;;;;;;;;;;;8.00;99.90;;;;;;6190044;23;20225;-78
2023/12/30 11:09:11;;;;;;;;;;;8.10;99.90;;;;;;6190086;23;19919;-78
2023/12/30 11:11:47;;;;;;;;;;;8.10;99.90;;;;;;6216987;23;19955;-78
2023/12/30 11:14:14;;;;;;;;;;;8.20;99.90;;;;;;6217103;23;19915;-79
2023/12/30 11:16:40;;;;;;;;;;;8.20;99.90;;;;;;6217026;23;19982;-78
2023/12/30 11:19:05;;;;;;;;;;;8.20;99.90;;;;;;6216481;23;20282;-78
2023/12/30 11:21:31;;;;;;;;;;;8.20;99.90;;;;;;6189972;23;19916;-78
2023/12/30 11:24:01;;;;;;;;;;;8.20;99.90;;;;;;6216694;23;19916;-78
2023/12/30 11:26:28;;;;;;;;;;;8.20;99.90;;;;;;6190451;23;19916;-78
2023/12/30 11:28:53;;;;;;;;;;;8.20;99.90;;;;;;6216839;23;19915;-78
2023/12/30 11:31:29;;;;;;;;;;;8.20;99.90;;;;;;6216601;23;20332;-78
2023/12/30 11:33:55;;;;;;;;;;;8.30;99.90;;;;;;6190166;23;20387;-78
2023/12/30 11:36:20;;;;;;;;;;;8.30;99.90;;;;;;6190007;23;19995;-79
2023/12/30 11:38:47;;;;;;;;;;;8.30;99.90;;;;;;6216476;23;20285;-78
2023/12/30 11:41:13;;;;;;;;;;;8.40;99.90;;;;;;6189843;23;19916;-78
2023/12/30 11:43:39;;;;;;;;;;;8.40;99.90;;;;;;6216366;23;19915;-79
2023/12/30 11:46:05;;;;;;;;;;;8.40;99.90;;;;;;6189704;23;19920;-79
2023/12/30 11:48:30;;;;;;;;;;;8.40;99.90;;;;;;6189467;23;20015;-78
2023/12/30 11:50:56;;;;;;;;;;;8.40;99.90;;;;;;6189811;23;19923;-78
2023/12/30 11:53:22;;;;;;;;;;;8.40;99.90;;;;;;6216313;23;20386;-78
2023/12/30 11:55:48;;;;;;;;;;;8.50;99.90;;;;;;6216734;23;19916;-78
2023/12/30 11:58:14;;;;;;;;;;;8.50;99.90;;;;;;6216739;23;19934;-78
2023/12/30 12:00:40;;;;;;;;;;;8.50;99.90;;;;;;6216629;23;19916;-77
2023/12/30 12:03:06;;;;;;;;;;;8.50;99.90;;;;;;6216799;23;19939;-78
2023/12/30 12:05:33;;;;;;;;;;;8.50;99.90;;;;;;6189796;23;19994;-76
2023/12/30 12:07:58;;;;;;;;;;;8.40;99.90;;;;;;6189387;23;19916;-78
2023/12/30 12:10:24;;;;;;;;;;;8.40;99.90;;;;;;6216560;23;19919;-78
2023/12/30 12:12:52;;;;;;;;;;;8.30;99.90;;;;;;6216704;23;19916;-78
2023/12/30 12:15:18;;;;;;;;;;;8.20;99.90;;;;;;6216132;23;19969;-78
2023/12/30 12:17:43;;;;;;;;;;;8.20;99.90;;;;;;6216609;23;19916;-78
2023/12/30 12:20:10;;;;;;;;;;;8.20;99.90;;;;;;6216433;23;19919;-78
2023/12/30 12:22:36;;;;;;;;;;;8.20;99.90;;;;;;6216591;23;19916;-78
2023/12/30 12:25:02;;;;;;;;;;;8.30;99.90;;;;;;6216194;23;19954;-78
2023/12/30 12:27:27;;;;;;;;;;;8.30;99.90;;;;;;6216347;23;19962;-78
2023/12/30 12:29:54;;;;;;;;;;;8.20;99.90;;;;;;6216258;23;19916;-78
2023/12/30 12:32:23;;;;;;;;;;;8.20;99.90;;;;;;6189684;23;19916;-78
2023/12/30 12:34:49;;;;;;;;;;;8.10;99.90;;;;;;6214613;23;19947;-78
2023/12/30 12:37:18;;;;;;;;;;;8.10;99.90;;;;;;6216443;23;19923;-78
2023/12/30 12:39:53;;;;;;;;;;;8.10;99.90;;;;;;6189492;23;19916;-78
2023/12/30 12:42:18;;;;;;;;;;;8.00;99.90;;;;;;6189486;23;19916;-78
2023/12/30 12:44:44;;;;;;;;;;;8.00;99.90;;;;;;6216390;23;19986;-78
2023/12/30 12:47:09;;;;;;;;;;;8.00;99.90;;;;;;6216474;23;19916;-78
2023/12/30 12:49:35;;;;;;;;;;;7.90;99.90;;;;;;6189226;23;20294;-78
2023/12/30 12:52:00;;;;;;;;;;;7.90;99.90;;;;;;6189628;23;19916;-78
2023/12/30 12:54:26;;;;;;;;;;;7.90;99.90;;;;;;6189573;23;19912;-78
2023/12/30 12:56:52;;;;;;;;;;;7.90;99.90;;;;;;6189431;23;20000;-78
2023/12/30 12:59:17;;;;;;;;;;;7.80;99.90;;;;;;6216347;23;19991;-79
2023/12/30 13:01:44;;;;;;;;;;;7.80;99.90;;;;;;6215967;23;19912;-78
2023/12/30 13:04:10;;;;;;;;;;;7.80;99.90;;;;;;6216319;23;19915;-78
2023/12/30 13:06:35;;;;;;;;;;;7.80;99.90;;;;;;6189767;23;20041;-78
2023/12/30 13:09:08;;;;;;;;;;;7.80;99.90;;;;;;6189437;23;19981;-78
2023/12/30 13:11:36;;;;;;;;;;;7.80;99.90;;;;;;6189420;23;20323;-78
2023/12/30 13:14:08;;;;;;;;;;;7.80;99.90;;;;;;6216048;23;19923;-77
2023/12/30 13:16:34;;;;;;;;;;;7.80;99.90;;;;;;6189419;23;19915;-77
2023/12/30 13:18:59;;;;;;;;;;;7.90;99.90;;;;;;6189436;23;19977;-77
2023/12/30 13:21:25;;;;;;;;;;;7.90;99.90;;;;;;6218275;23;19991;-78
2023/12/30 13:23:50;;;;;;;;;;;7.90;99.90;;;;;;6218382;23;19916;-78
2023/12/30 13:26:18;;;;;;;;;;;7.90;99.90;;;;;;6191381;23;19923;-76
2023/12/30 13:28:43;;;;;;;;;;;7.90;99.90;;;;;;6218302;23;19947;-78
2023/12/30 13:31:09;;;;;;;;;;;7.90;99.90;;;;;;6191412;23;19923;-79
2023/12/30 13:33:35;;;;;;;;;;;7.90;99.90;;;;;;6218235;23;19926;-78
2023/12/30 13:36:06;;;;;;;;;;;7.90;99.90;;;;;;6218274;23;19951;-78
2023/12/30 13:38:39;;;;;;;;;;;7.90;99.90;;;;;;6191242;23;19923;-78
2023/12/30 13:41:04;;;;;;;;;;;7.90;99.90;;;;;;6191743;23;19954;-79
2023/12/30 13:43:30;;;;;;;;;;;7.90;99.90;;;;;;6191223;23;19966;-78
2023/12/30 13:46:11;;;;;;;;;;;7.90;99.90;;;;;;6217708;23;19915;-78
2023/12/30 13:49:22;;;;;;;;;;;7.90;99.90;;;;;;6217706;23;19916;-77
2023/12/30 13:51:29;;;;;;;;;;;7.90;99.90;;;;;;6217445;23;20230;-77
2023/12/30 13:53:55;;;;;;;;;;;7.90;99.90;;;;;;6191436;23;19920;-78
2023/12/30 13:56:23;;;;;;;;;;;7.90;99.90;;;;;;6191347;23;19954;-78
2023/12/30 13:58:50;;;;;;;;;;;7.90;99.90;;;;;;6191092;23;19915;-78
2023/12/30 14:01:16;;;;;;;;;;;7.90;99.90;;;;;;6191028;23;20038;-77
2023/12/30 14:03:43;;;;;;;;;;;7.90;99.90;;;;;;6217897;23;19922;-77
2023/12/30 14:06:13;;;;;;;;;;;7.90;99.90;;;;;;6217679;23;19916;-77
2023/12/30 14:08:42;;;;;;;;;;;7.90;99.90;;;;;;6191638;23;19938;-77
2023/12/30 14:11:20;;;;;;;;;;;7.90;99.90;;;;;;6217741;23;19916;-77
2023/12/30 14:13:47;;;;;;;;;;;7.90;99.90;;;;;;6217522;23;20332;-77
2023/12/30 14:16:13;;;;;;;;;;;7.90;99.90;;;;;;6190787;23;19986;-78
2023/12/30 14:18:39;;;;;;;;;;;7.90;99.90;;;;;;6217808;23;19916;-77
2023/12/30 14:21:04;;;;;;;;;;;7.90;99.90;;;;;;6190969;23;20217;-78
2023/12/30 14:23:31;;;;;;;;;;;7.90;99.90;;;;;;6190831;23;19991;-78
2023/12/30 14:25:57;;;;;;;;;;;7.90;99.90;;;;;;6190820;23;19930;-77